Friday, November 28, 2014
01:28 UTC
  |  Log In   |  Register Free
Airport Search:

La Guardia Airport
(KLGA)

FAA data valid effective November 13, 2014 - January 08, 2015 (unless otherwise noted).

 
 
 
 
 
 
 
 
 
 
 
 
 
 

Current Aviation Weather for La Guardia Airport (KLGA)

The most recent METAR observation for KLGA was updated at: 0122
METAR Summary (Translated METAR)
KLGA
280051Z 32010KT 10SM FEW026 BKN040 OVC130 03/M03 A3004 RMK AO2 SLP173 T00281028
KJFK
280051Z 31013KT 10SM FEW027 OVC038 03/M04 A3005 RMK AO2 SLP175 T00331039 $
(9.3 nm SE from KLGA)
KTEB
280051Z 30006KT 10SM OVC044 02/M03 A3004 RMK AO2 SLP173 T00221028 $
(9.6 nm NW from KLGA)
TAF Summary (Translated TAF)
KLGA
272030Z 2721/2818 32008KT P6SM SCT020 BKN040 TEMPO 2721/2801 BKN020 FM280500 32010KT P6SM SCT050 SCT080 FM281400 32014G20KT P6SM FEW040
KJFK
(9.3 nm SE from KLGA)
272030Z 2721/2824 32008KT P6SM SCT020 BKN040 TEMPO 2721/2801 BKN020 FM280500 31010KT P6SM SCT050 SCT080 FM281400 31014G20KT P6SM FEW040
  Airport Weather Conditions for KLGA

 Current Weather at LGA
37° F
Overcast
Northwest winds at 11.5 mph
LGA NOAA Radar

Pressure: 30.04 in
Humidity: 67%
Wind: Northwest at 11.5 MPH (10 KT)
Dew Point: 27.0°F
Visibility: 10.00 mi


Airport Weather Forecast for KLGA

Translated METAR and TAF for KLGA
Translated METAR for KLGA (0123 UTC 28 November 2014)
found at http://aviationweather.gov/adds/metars/
 
METAR text: KLGA 280051Z 32010KT 10SM FEW026 BKN040 OVC130 03/M03 A3004 RMK AO2 SLP173 T00281028
Conditions at: KLGA (NYC/LA GUARDIA , NY, US) observed 0051 UTC 28 November 2014
Temperature: 2.8°C (37°F)
Dewpoint: -2.8°C (27°F) [RH = 67%]
Pressure (altimeter): 30.04 inches Hg (1017.4 mb)
[Sea-level pressure: 1017.3 mb]
Winds: from the NW (320 degrees) at 12 MPH (10 knots; 5.2 m/s)
Visibility: 10 or more miles (16+ km)
Ceiling: 4000 feet AGL
Clouds: few clouds at 2600 feet AGL
broken clouds at 4000 feet AGL
overcast cloud deck at 13000 feet AGL
Weather: no significant weather observed at this time
Translated TAF for KLGA
Forecast for: KLGA (NYC/LA GUARDIA , NY, US)
TAF Text: KLGA 272347Z 2800/2824 32009KT P6SM SCT025 BKN040
Forecast period: 0000 to 0200 UTC 28 November 2014
Forecast type: FROM: standard forecast or significant change
Winds: from the NW (320 degrees) at 10 MPH (9 knots; 4.7 m/s)
Visibility: 6 or more miles (10+ km)
Ceiling: 4000 feet AGL
Clouds: scattered clouds at 2500 feet AGL
broken clouds at 4000 feet AGL
Weather: no significant weather forecast for this period
TAF Text: FM280200 32010KT P6SM SCT030 BKN100
Forecast period: 0200 to 1400 UTC 28 November 2014
Forecast type: FROM: standard forecast or significant change
Winds: from the NW (320 degrees) at 12 MPH (10 knots; 5.2 m/s)
Visibility: 6 or more miles (10+ km)
Ceiling: 10000 feet AGL
Clouds: scattered clouds at 3000 feet AGL
broken clouds at 10000 feet AGL
Weather: no significant weather forecast for this period
TAF Text: FM281400 32014G20KT P6SM BKN040
Forecast period: 1400 UTC 28 November 2014 to 0000 UTC 29 November 2014
Forecast type: FROM: standard forecast or significant change
Winds: from the NW (320 degrees) at 16 MPH (14 knots; 7.3 m/s)
gusting to 23 MPH (20 knots; 10.4 m/s)
Visibility: 6 or more miles (10+ km)
Ceiling: 4000 feet AGL
Clouds: broken clouds at 4000 feet AGL
Weather: no significant weather forecast for this period

Find All Airport Services Find A Hotel Find A Rental Car Find A Golf Course Find A Restaurant $100 Hamburger



FBO's on the Field
FBO Company Facility Photos Services Transportation Aviation Fuel Prices: Prices include tax
Catering Weather Repair Courtesy Rental Type 100LL JetA JetA+ MOGAS 8087
 
Sheltair

This FBO has not yet been rated
FS:Avfuel
Last Updated: Nov-18
Login to update fuel prices
SS:
Contact SheltairMore FBO Information
 
Add another FBO Facility Photos Catering Weather Repair Courtesy Rental Type 100LL JetA JetA+ MOGAS 8087
Services Transportation Aviation Fuel Prices: Prices include tax


model-print
model-print
model-print
model-print